Terminal Aerodrome Forecast
Issued by NWS

Home | Current Version | Previous Version | Text Only | Print | Product List | Glossary On
Versions: 1 2 3 4 5 6 7 8 9 10 11 12 13 14 15 16 17 18 19 20 21 22 23 24 25 26 27 28 29 30
000
FTUS45 KPSR 240200 AAC
TAFSDL
TAF AMD
KSDL 240239Z 2403/2424 09010G20KT P6SM VCTS SCT120CB BKN200
     FM240300 12010G20KT P6SM VCTS SCT120CB BKN180
      TEMPO 2403/2404 VRB20G30KT -TSRA BKN100CB
     FM240400 13012KT P6SM VCTS FEW120CB BKN180
     FM240600 11008KT P6SM SCT100 BKN150 OVC250=

USA.gov is the U.S. government's official web portal to all federal, state and local government web resources and services.